Check out our new PWSWeather beta!
PWSweather.com
Personal Weather Stations
Station Observations

ChardChardGB

Lat: 50.877408, Lon: -2.94964741

Elevation: 341

Station Type: WS3083

http://www.merriott-astro.co.uk/weather/index.htm

High Low Average
Temperature 47.5°F8.6°C 38.7°F3.7°C 42.3°F5.7°C
Dew Point 36.5°F2.5°C 33.6°F0.9°C 35.1°F1.7°C
Winds 12.1 mph 19.5 kmh 0.9 mph 1.4 kmh 6.0 mph WNW9.7 kmh WNW
Wind Gusts 19.7 mph31.7 kmh 2.2 mph3.5 kmh 8.0 mph12.9 kmh
Humidity 83% 63% 76%
Pressure 29.56 in1001.0 mb 29.09 in985.1 mb -
Precipitation 0.06 in1.5 mm - -
Hour Temp Dew Point Humidity Winds Wind Gusts Pressure Precip Precip Rate Daily Precip Total
12:00 AM 39.2°F4.0°C 34.5°F1.4°C 83% 4.0 mph NW6.4 kmh NW 5.4 mph8.7 kmh 29.09 in985.1 mb 0.01 in0.3 mm 0.00 in0.0 mm 0.01 in0.3 mm
12:10 AM 39.0°F3.9°C 34.3°F1.3°C 83% 6.0 mph NNW9.7 kmh NNW 9.2 mph14.8 kmh 29.10 in985.4 mb 0.00 in0.0 mm 0.00 in0.0 mm 0.01 in0.3 mm
12:20 AM 39.0°F3.9°C 34.3°F1.3°C 83% 3.3 mph NW5.3 kmh NW 5.4 mph8.7 kmh 29.09 in985.1 mb 0.01 in0.3 mm 0.06 in1.5 mm 0.01 in0.3 mm
12:30 AM 39.0°F3.9°C 34.3°F1.3°C 83% 1.6 mph N2.6 kmh N 2.2 mph3.5 kmh 29.10 in985.4 mb 0.01 in0.3 mm 0.00 in0.0 mm 0.01 in0.3 mm
12:40 AM 39.0°F3.9°C 34.3°F1.3°C 83% 0.9 mph NNW1.4 kmh NNW 2.2 mph3.5 kmh 29.10 in985.4 mb 0.01 in0.3 mm 0.00 in0.0 mm 0.01 in0.3 mm
12:50 AM 39.0°F3.9°C 34.3°F1.3°C 83% 2.7 mph NW4.3 kmh NW 4.5 mph7.2 kmh 29.10 in985.4 mb 0.01 in0.3 mm 0.00 in0.0 mm 0.01 in0.3 mm
01:00 AM 39.0°F3.9°C 34.3°F1.3°C 83% 5.0 mph NW8.0 kmh NW 6.0 mph9.7 kmh 29.09 in985.1 mb 0.01 in0.3 mm 0.00 in0.0 mm 0.01 in0.3 mm
01:10 AM 39.0°F3.9°C 34.3°F1.3°C 83% 4.2 mph NW6.8 kmh NW 6.0 mph9.7 kmh 29.10 in985.4 mb 0.01 in0.3 mm 0.00 in0.0 mm 0.01 in0.3 mm
01:20 AM 39.0°F3.9°C 34.3°F1.3°C 83% 4.8 mph NNW7.7 kmh NNW 6.0 mph9.7 kmh 29.09 in985.1 mb 0.00 in0.0 mm 0.00 in0.0 mm 0.01 in0.3 mm
01:30 AM 38.8°F3.8°C 34.1°F1.2°C 83% 4.4 mph NNW7.1 kmh NNW 7.6 mph12.2 kmh 29.10 in985.4 mb 0.01 in0.3 mm 0.06 in1.5 mm 0.02 in0.5 mm
01:40 AM 38.8°F3.8°C 34.1°F1.2°C 83% 2.9 mph NW4.7 kmh NW 4.5 mph7.2 kmh 29.10 in985.4 mb 0.01 in0.3 mm 0.00 in0.0 mm 0.02 in0.5 mm
01:50 AM 38.7°F3.7°C 34.0°F1.1°C 83% 4.6 mph NNW7.4 kmh NNW 6.0 mph9.7 kmh 29.10 in985.4 mb 0.01 in0.3 mm 0.00 in0.0 mm 0.02 in0.5 mm
02:00 AM 38.7°F3.7°C 34.0°F1.1°C 83% 3.3 mph NW5.3 kmh NW 4.5 mph7.2 kmh 29.10 in985.4 mb 0.02 in0.5 mm 0.01 in0.3 mm 0.04 in1.0 mm
02:10 AM 38.7°F3.7°C 34.0°F1.1°C 83% 1.9 mph NNW3.1 kmh NNW 3.1 mph5.0 kmh 29.10 in985.4 mb 0.02 in0.5 mm 0.00 in0.0 mm 0.04 in1.0 mm
02:20 AM 38.7°F3.7°C 34.0°F1.1°C 83% 3.8 mph NW6.1 kmh NW 5.4 mph8.7 kmh 29.10 in985.4 mb 0.01 in0.3 mm 0.00 in0.0 mm 0.04 in1.0 mm
02:30 AM 38.7°F3.7°C 34.0°F1.1°C 83% 3.9 mph NW6.3 kmh NW 6.9 mph11.1 kmh 29.09 in985.1 mb 0.01 in0.3 mm 0.00 in0.0 mm 0.04 in1.0 mm
02:40 AM 39.0°F3.9°C 34.3°F1.3°C 83% 4.2 mph WNW6.8 kmh WNW 7.6 mph12.2 kmh 29.09 in985.1 mb 0.01 in0.3 mm 0.00 in0.0 mm 0.04 in1.0 mm
02:50 AM 39.2°F4.0°C 34.5°F1.4°C 83% 5.6 mph NW9.0 kmh NW 9.2 mph14.8 kmh 29.09 in985.1 mb 0.01 in0.3 mm 0.00 in0.0 mm 0.04 in1.0 mm
03:00 AM 39.4°F4.1°C 34.7°F1.5°C 83% 5.6 mph NW9.0 kmh NW 6.9 mph11.1 kmh 29.09 in985.1 mb 0.00 in0.0 mm 0.00 in0.0 mm 0.04 in1.0 mm
03:10 AM 39.4°F4.1°C 34.7°F1.5°C 83% 5.0 mph NW8.0 kmh NW 7.6 mph12.2 kmh 29.09 in985.1 mb 0.00 in0.0 mm 0.00 in0.0 mm 0.04 in1.0 mm
03:20 AM 39.7°F4.3°C 35.0°F1.7°C 83% 5.4 mph NW8.7 kmh NW 9.2 mph14.8 kmh 29.09 in985.1 mb 0.00 in0.0 mm 0.00 in0.0 mm 0.04 in1.0 mm
03:30 AM 40.1°F4.5°C 35.4°F1.9°C 83% 5.1 mph NW8.2 kmh NW 6.9 mph11.1 kmh 29.09 in985.1 mb 0.00 in0.0 mm 0.00 in0.0 mm 0.04 in1.0 mm
03:40 AM 40.3°F4.6°C 35.5°F1.9°C 83% 4.4 mph NW7.1 kmh NW 6.0 mph9.7 kmh 29.09 in985.1 mb 0.00 in0.0 mm 0.00 in0.0 mm 0.04 in1.0 mm
03:50 AM 40.3°F4.6°C 35.5°F1.9°C 83% 4.4 mph N7.1 kmh N 7.6 mph12.2 kmh 29.09 in985.1 mb 0.00 in0.0 mm 0.00 in0.0 mm 0.04 in1.0 mm
04:00 AM 40.3°F4.6°C 35.5°F1.9°C 83% 5.9 mph NW9.5 kmh NW 8.3 mph13.4 kmh 29.10 in985.4 mb 0.00 in0.0 mm 0.00 in0.0 mm 0.04 in1.0 mm
04:10 AM 40.1°F4.5°C 35.4°F1.9°C 83% 7.8 mph N12.6 kmh N 10.7 mph17.2 kmh 29.10 in985.4 mb 0.00 in0.0 mm 0.00 in0.0 mm 0.04 in1.0 mm
04:20 AM 39.9°F4.4°C 34.9°F1.6°C 82% 8.3 mph N13.4 kmh N 14.5 mph23.3 kmh 29.11 in985.8 mb 0.00 in0.0 mm 0.00 in0.0 mm 0.04 in1.0 mm
04:30 AM 39.7°F4.3°C 34.7°F1.5°C 82% 7.9 mph NNE12.7 kmh NNE 9.8 mph15.8 kmh 29.11 in985.8 mb 0.00 in0.0 mm 0.00 in0.0 mm 0.04 in1.0 mm
04:40 AM 39.6°F4.2°C 34.5°F1.4°C 82% 7.2 mph N11.6 kmh N 9.8 mph15.8 kmh 29.11 in985.8 mb 0.00 in0.0 mm 0.00 in0.0 mm 0.04 in1.0 mm
04:50 AM 39.6°F4.2°C 34.5°F1.4°C 82% 5.8 mph NNW9.3 kmh NNW 8.3 mph13.4 kmh 29.11 in985.8 mb 0.00 in0.0 mm 0.00 in0.0 mm 0.04 in1.0 mm
05:00 AM 39.6°F4.2°C 34.5°F1.4°C 82% 4.8 mph NNW7.7 kmh NNW 6.9 mph11.1 kmh 29.12 in986.1 mb 0.00 in0.0 mm 0.00 in0.0 mm 0.04 in1.0 mm
05:10 AM 39.6°F4.2°C 34.8°F1.6°C 83% 5.9 mph NNW9.5 kmh NNW 9.2 mph14.8 kmh 29.11 in985.8 mb 0.00 in0.0 mm 0.00 in0.0 mm 0.04 in1.0 mm
05:20 AM 39.6°F4.2°C 34.8°F1.6°C 83% 5.1 mph NNW8.2 kmh NNW 6.9 mph11.1 kmh 29.12 in986.1 mb 0.00 in0.0 mm 0.00 in0.0 mm 0.04 in1.0 mm
05:30 AM 39.6°F4.2°C 34.8°F1.6°C 83% 4.6 mph NW7.4 kmh NW 7.6 mph12.2 kmh 29.12 in986.1 mb 0.00 in0.0 mm 0.00 in0.0 mm 0.04 in1.0 mm
05:40 AM 39.6°F4.2°C 34.8°F1.6°C 83% 4.2 mph N6.8 kmh N 6.9 mph11.1 kmh 29.13 in986.5 mb 0.00 in0.0 mm 0.00 in0.0 mm 0.04 in1.0 mm
05:50 AM 39.6°F4.2°C 34.8°F1.6°C 83% 4.1 mph NNW6.6 kmh NNW 6.0 mph9.7 kmh 29.14 in986.8 mb 0.01 in0.3 mm 0.06 in1.5 mm 0.05 in1.3 mm
06:00 AM 39.7°F4.3°C 35.0°F1.7°C 83% 4.5 mph NW7.2 kmh NW 6.0 mph9.7 kmh 29.14 in986.8 mb 0.01 in0.3 mm 0.00 in0.0 mm 0.05 in1.3 mm
06:10 AM 39.7°F4.3°C 35.0°F1.7°C 83% 5.3 mph NW8.5 kmh NW 9.2 mph14.8 kmh 29.14 in986.8 mb 0.01 in0.3 mm 0.00 in0.0 mm 0.05 in1.3 mm
06:20 AM 39.7°F4.3°C 35.0°F1.7°C 83% 3.1 mph NW5.0 kmh NW 4.5 mph7.2 kmh 29.14 in986.8 mb 0.01 in0.3 mm 0.00 in0.0 mm 0.05 in1.3 mm
06:30 AM 39.7°F4.3°C 35.0°F1.7°C 83% 5.6 mph WNW9.0 kmh WNW 9.2 mph14.8 kmh 29.15 in987.1 mb 0.01 in0.3 mm 0.00 in0.0 mm 0.05 in1.3 mm
06:40 AM 39.7°F4.3°C 35.0°F1.7°C 83% 4.3 mph NW6.9 kmh NW 6.9 mph11.1 kmh 29.15 in987.1 mb 0.01 in0.3 mm 0.00 in0.0 mm 0.05 in1.3 mm
06:50 AM 39.7°F4.3°C 35.0°F1.7°C 83% 5.1 mph N8.2 kmh N 7.6 mph12.2 kmh 29.16 in987.5 mb 0.00 in0.0 mm 0.00 in0.0 mm 0.05 in1.3 mm
07:00 AM 39.7°F4.3°C 35.0°F1.7°C 83% 3.6 mph SSE5.8 kmh SSE 6.0 mph9.7 kmh 29.15 in987.1 mb 0.00 in0.0 mm 0.00 in0.0 mm 0.05 in1.3 mm
07:10 AM 39.7°F4.3°C 35.0°F1.7°C 83% 3.1 mph S5.0 kmh S 3.1 mph5.0 kmh 29.15 in987.1 mb 0.00 in0.0 mm 0.00 in0.0 mm 0.05 in1.3 mm
07:20 AM 39.7°F4.3°C 35.0°F1.7°C 83% 3.1 mph S5.0 kmh S 3.1 mph5.0 kmh 29.16 in987.5 mb 0.00 in0.0 mm 0.00 in0.0 mm 0.05 in1.3 mm
07:30 AM 39.7°F4.3°C 35.0°F1.7°C 83% 3.1 mph S5.0 kmh S 3.1 mph5.0 kmh 29.17 in987.8 mb 0.00 in0.0 mm 0.00 in0.0 mm 0.05 in1.3 mm
07:40 AM 39.7°F4.3°C 35.0°F1.7°C 83% 3.1 mph S5.0 kmh S 3.1 mph5.0 kmh 29.17 in987.8 mb 0.00 in0.0 mm 0.00 in0.0 mm 0.05 in1.3 mm
07:50 AM 39.7°F4.3°C 35.0°F1.7°C 83% 3.1 mph S5.0 kmh S 3.1 mph5.0 kmh 29.18 in988.1 mb 0.00 in0.0 mm 0.00 in0.0 mm 0.05 in1.3 mm
08:00 AM 39.7°F4.3°C 35.0°F1.7°C 83% 3.1 mph S5.0 kmh S 3.1 mph5.0 kmh 29.18 in988.1 mb 0.00 in0.0 mm 0.00 in0.0 mm 0.05 in1.3 mm
08:10 AM 39.7°F4.3°C 35.0°F1.7°C 83% 3.1 mph S5.0 kmh S 3.1 mph5.0 kmh 29.18 in988.1 mb 0.00 in0.0 mm 0.00 in0.0 mm 0.05 in1.3 mm
08:20 AM 39.7°F4.3°C 35.0°F1.7°C 83% 3.1 mph S5.0 kmh S 3.1 mph5.0 kmh 29.19 in988.5 mb 0.00 in0.0 mm 0.00 in0.0 mm 0.05 in1.3 mm
08:30 AM 39.7°F4.3°C 35.0°F1.7°C 83% 3.1 mph S5.0 kmh S 3.1 mph5.0 kmh 29.19 in988.5 mb 0.00 in0.0 mm 0.00 in0.0 mm 0.05 in1.3 mm
08:40 AM 39.7°F4.3°C 35.0°F1.7°C 83% 3.1 mph S5.0 kmh S 3.1 mph5.0 kmh 29.19 in988.5 mb 0.00 in0.0 mm 0.00 in0.0 mm 0.05 in1.3 mm
08:50 AM 39.7°F4.3°C 35.0°F1.7°C 83% 3.1 mph S5.0 kmh S 3.1 mph5.0 kmh 29.20 in988.8 mb 0.00 in0.0 mm 0.00 in0.0 mm 0.05 in1.3 mm
09:00 AM 39.7°F4.3°C 35.0°F1.7°C 83% 3.1 mph S5.0 kmh S 3.1 mph5.0 kmh 29.20 in988.8 mb 0.00 in0.0 mm 0.00 in0.0 mm 0.05 in1.3 mm
09:10 AM 39.7°F4.3°C 35.0°F1.7°C 83% 3.1 mph S5.0 kmh S 3.1 mph5.0 kmh 29.21 in989.2 mb 0.00 in0.0 mm 0.00 in0.0 mm 0.05 in1.3 mm
09:20 AM 39.7°F4.3°C 35.0°F1.7°C 83% 3.1 mph S5.0 kmh S 3.1 mph5.0 kmh 29.21 in989.2 mb 0.00 in0.0 mm 0.00 in0.0 mm 0.05 in1.3 mm
09:30 AM 39.7°F4.3°C 35.0°F1.7°C 83% 3.1 mph S5.0 kmh S 3.1 mph5.0 kmh 29.22 in989.5 mb 0.00 in0.0 mm 0.00 in0.0 mm 0.05 in1.3 mm
09:40 AM 41.9°F5.5°C 35.6°F2.0°C 78% 7.9 mph NW12.7 kmh NW 12.1 mph19.5 kmh 29.23 in989.8 mb 0.00 in0.0 mm 0.00 in0.0 mm 0.05 in1.3 mm
09:50 AM 42.4°F5.8°C 36.1°F2.3°C 78% 7.5 mph NNW12.1 kmh NNW 9.8 mph15.8 kmh 29.23 in989.8 mb 0.00 in0.0 mm 0.00 in0.0 mm 0.05 in1.3 mm
10:00 AM 42.8°F6.0°C 36.4°F2.4°C 78% 7.3 mph NW11.7 kmh NW 10.7 mph17.2 kmh 29.23 in989.8 mb 0.00 in0.0 mm 0.00 in0.0 mm 0.05 in1.3 mm
10:10 AM 42.8°F6.0°C 35.8°F2.1°C 76% 10.2 mph NW16.4 kmh NW 14.5 mph23.3 kmh 29.23 in989.8 mb 0.00 in0.0 mm 0.00 in0.0 mm 0.05 in1.3 mm
10:20 AM 42.3°F5.7°C 35.2°F1.8°C 76% 9.4 mph NW15.1 kmh NW 12.1 mph19.5 kmh 29.24 in990.2 mb 0.00 in0.0 mm 0.00 in0.0 mm 0.05 in1.3 mm
10:30 AM 42.4°F5.8°C 35.8°F2.1°C 77% 9.5 mph N15.3 kmh N 13.6 mph21.9 kmh 29.24 in990.2 mb 0.00 in0.0 mm 0.00 in0.0 mm 0.05 in1.3 mm
10:40 AM 43.0°F6.1°C 35.6°F2.0°C 75% 10.8 mph NW17.4 kmh NW 13.0 mph20.9 kmh 29.25 in990.5 mb 0.00 in0.0 mm 0.00 in0.0 mm 0.05 in1.3 mm
10:50 AM 43.9°F6.6°C 35.8°F2.1°C 73% 8.2 mph NW13.2 kmh NW 10.7 mph17.2 kmh 29.25 in990.5 mb 0.00 in0.0 mm 0.00 in0.0 mm 0.05 in1.3 mm
11:00 AM 45.1°F7.3°C 36.3°F2.4°C 71% 8.8 mph NW14.2 kmh NW 13.0 mph20.9 kmh 29.26 in990.9 mb 0.00 in0.0 mm 0.00 in0.0 mm 0.05 in1.3 mm
11:10 AM 44.2°F6.8°C 35.4°F1.9°C 71% 10.8 mph NNW17.4 kmh NNW 16.8 mph27.0 kmh 29.26 in990.9 mb 0.00 in0.0 mm 0.00 in0.0 mm 0.05 in1.3 mm
11:20 AM 45.7°F7.6°C 35.4°F1.9°C 67% 9.8 mph NNW15.8 kmh NNW 14.5 mph23.3 kmh 29.26 in990.9 mb 0.00 in0.0 mm 0.00 in0.0 mm 0.05 in1.3 mm
11:30 AM 45.3°F7.4°C 36.1°F2.3°C 70% 8.9 mph NNW14.3 kmh NNW 13.0 mph20.9 kmh 29.26 in990.9 mb 0.00 in0.0 mm 0.00 in0.0 mm 0.05 in1.3 mm
11:40 AM 45.0°F7.2°C 35.8°F2.1°C 70% 8.1 mph NNW13.0 kmh NNW 13.0 mph20.9 kmh 29.27 in991.2 mb 0.00 in0.0 mm 0.00 in0.0 mm 0.05 in1.3 mm
11:50 AM 45.3°F7.4°C 36.5°F2.5°C 71% 7.9 mph NW12.7 kmh NW 11.4 mph18.3 kmh 29.27 in991.2 mb 0.00 in0.0 mm 0.00 in0.0 mm 0.05 in1.3 mm
12:00 PM 45.9°F7.7°C 35.2°F1.8°C 66% 8.0 mph NW12.9 kmh NW 10.7 mph17.2 kmh 29.28 in991.5 mb 0.00 in0.0 mm 0.00 in0.0 mm 0.05 in1.3 mm
12:10 PM 45.1°F7.3°C 35.9°F2.2°C 70% 7.6 mph N12.2 kmh N 12.1 mph19.5 kmh 29.28 in991.5 mb 0.00 in0.0 mm 0.00 in0.0 mm 0.05 in1.3 mm
12:20 PM 44.6°F7.0°C 35.4°F1.9°C 70% 7.4 mph NW11.9 kmh NW 11.4 mph18.3 kmh 29.29 in991.9 mb 0.00 in0.0 mm 0.00 in0.0 mm 0.05 in1.3 mm
12:30 PM 44.4°F6.9°C 35.6°F2.0°C 71% 8.7 mph WNW14.0 kmh WNW 10.7 mph17.2 kmh 29.29 in991.9 mb 0.00 in0.0 mm 0.00 in0.0 mm 0.05 in1.3 mm
12:40 PM 45.0°F7.2°C 36.1°F2.3°C 71% 7.9 mph NW12.7 kmh NW 10.7 mph17.2 kmh 29.29 in991.9 mb 0.00 in0.0 mm 0.00 in0.0 mm 0.05 in1.3 mm
12:50 PM 45.5°F7.5°C 34.8°F1.6°C 66% 8.4 mph N13.5 kmh N 12.1 mph19.5 kmh 29.30 in992.2 mb 0.00 in0.0 mm 0.00 in0.0 mm 0.05 in1.3 mm
01:00 PM 45.7°F7.6°C 34.6°F1.4°C 65% 12.1 mph NNW19.5 kmh NNW 19.7 mph31.7 kmh 29.30 in992.2 mb 0.01 in0.3 mm 0.01 in0.3 mm 0.06 in1.5 mm
01:10 PM 46.2°F7.9°C 34.3°F1.3°C 63% 8.6 mph N13.8 kmh N 12.1 mph19.5 kmh 29.31 in992.6 mb 0.01 in0.3 mm 0.00 in0.0 mm 0.06 in1.5 mm
01:20 PM 45.7°F7.6°C 33.8°F1.0°C 63% 9.0 mph NNW14.5 kmh NNW 11.4 mph18.3 kmh 29.31 in992.6 mb 0.01 in0.3 mm 0.00 in0.0 mm 0.06 in1.5 mm
01:30 PM 45.5°F7.5°C 34.0°F1.1°C 64% 8.2 mph NW13.2 kmh NW 12.1 mph19.5 kmh 29.31 in992.6 mb 0.01 in0.3 mm 0.00 in0.0 mm 0.06 in1.5 mm
01:40 PM 45.1°F7.3°C 35.6°F2.0°C 69% 7.8 mph WNW12.6 kmh WNW 10.7 mph17.2 kmh 29.32 in992.9 mb 0.01 in0.3 mm 0.00 in0.0 mm 0.06 in1.5 mm
01:50 PM 44.6°F7.0°C 35.4°F1.9°C 70% 7.7 mph NW12.4 kmh NW 12.1 mph19.5 kmh 29.32 in992.9 mb 0.01 in0.3 mm 0.00 in0.0 mm 0.06 in1.5 mm
02:00 PM 44.4°F6.9°C 35.3°F1.8°C 70% 8.5 mph NNW13.7 kmh NNW 9.8 mph15.8 kmh 29.32 in992.9 mb 0.00 in0.0 mm 0.00 in0.0 mm 0.06 in1.5 mm
02:10 PM 44.4°F6.9°C 35.3°F1.8°C 70% 8.3 mph NW13.4 kmh NW 10.7 mph17.2 kmh 29.34 in993.6 mb 0.00 in0.0 mm 0.00 in0.0 mm 0.06 in1.5 mm
02:20 PM 45.1°F7.3°C 35.9°F2.2°C 70% 8.1 mph NW13.0 kmh NW 9.8 mph15.8 kmh 29.33 in993.2 mb 0.00 in0.0 mm 0.00 in0.0 mm 0.06 in1.5 mm
02:30 PM 47.5°F8.6°C 35.5°F1.9°C 63% 8.9 mph NW14.3 kmh NW 11.4 mph18.3 kmh 29.34 in993.6 mb 0.00 in0.0 mm 0.00 in0.0 mm 0.06 in1.5 mm
02:40 PM 45.5°F7.5°C 33.6°F0.9°C 63% 7.8 mph NW12.6 kmh NW 10.7 mph17.2 kmh 29.34 in993.6 mb 0.00 in0.0 mm 0.00 in0.0 mm 0.06 in1.5 mm
02:50 PM 45.0°F7.2°C 35.4°F1.9°C 69% 7.3 mph WNW11.7 kmh WNW 13.0 mph20.9 kmh 29.35 in993.9 mb 0.00 in0.0 mm 0.00 in0.0 mm 0.06 in1.5 mm
03:00 PM 44.6°F7.0°C 35.4°F1.9°C 70% 7.1 mph NW11.4 kmh NW 12.1 mph19.5 kmh 29.35 in993.9 mb 0.00 in0.0 mm 0.00 in0.0 mm 0.06 in1.5 mm
03:10 PM 44.4°F6.9°C 35.3°F1.8°C 70% 6.8 mph NNW10.9 kmh NNW 9.2 mph14.8 kmh 29.36 in994.2 mb 0.00 in0.0 mm 0.00 in0.0 mm 0.06 in1.5 mm
03:20 PM 44.4°F6.9°C 35.6°F2.0°C 71% 3.6 mph N5.8 kmh N 6.9 mph11.1 kmh 29.36 in994.2 mb 0.00 in0.0 mm 0.00 in0.0 mm 0.06 in1.5 mm
03:30 PM 44.6°F7.0°C 35.8°F2.1°C 71% 3.9 mph WNW6.3 kmh WNW 6.9 mph11.1 kmh 29.37 in994.6 mb 0.00 in0.0 mm 0.00 in0.0 mm 0.06 in1.5 mm
03:40 PM 45.0°F7.2°C 36.1°F2.3°C 71% 5.3 mph NNW8.5 kmh NNW 6.9 mph11.1 kmh 29.37 in994.6 mb 0.00 in0.0 mm 0.00 in0.0 mm 0.06 in1.5 mm
03:50 PM 45.0°F7.2°C 35.8°F2.1°C 70% 6.6 mph NW10.6 kmh NW 9.2 mph14.8 kmh 29.37 in994.6 mb 0.00 in0.0 mm 0.00 in0.0 mm 0.06 in1.5 mm
04:00 PM 45.1°F7.3°C 35.9°F2.2°C 70% 7.6 mph NW12.2 kmh NW 10.7 mph17.2 kmh 29.37 in994.6 mb 0.00 in0.0 mm 0.00 in0.0 mm 0.06 in1.5 mm
04:10 PM 45.5°F7.5°C 34.4°F1.3°C 65% 5.0 mph NW8.0 kmh NW 7.6 mph12.2 kmh 29.38 in994.9 mb 0.00 in0.0 mm 0.00 in0.0 mm 0.06 in1.5 mm
04:20 PM 45.3°F7.4°C 36.1°F2.3°C 70% 6.1 mph NW9.8 kmh NW 10.7 mph17.2 kmh 29.38 in994.9 mb 0.00 in0.0 mm 0.00 in0.0 mm 0.06 in1.5 mm
04:30 PM 45.0°F7.2°C 35.8°F2.1°C 70% 8.0 mph NW12.9 kmh NW 10.7 mph17.2 kmh 29.39 in995.3 mb 0.00 in0.0 mm 0.00 in0.0 mm 0.06 in1.5 mm
04:40 PM 44.8°F7.1°C 35.6°F2.0°C 70% 7.9 mph NW12.7 kmh NW 12.1 mph19.5 kmh 29.39 in995.3 mb 0.00 in0.0 mm 0.00 in0.0 mm 0.06 in1.5 mm
04:50 PM 44.6°F7.0°C 35.4°F1.9°C 70% 8.0 mph W12.9 kmh W 13.6 mph21.9 kmh 29.39 in995.3 mb 0.00 in0.0 mm 0.00 in0.0 mm 0.06 in1.5 mm
05:00 PM 44.6°F7.0°C 35.4°F1.9°C 70% 7.1 mph NW11.4 kmh NW 8.3 mph13.4 kmh 29.39 in995.3 mb 0.00 in0.0 mm 0.00 in0.0 mm 0.06 in1.5 mm
05:10 PM 44.6°F7.0°C 35.4°F1.9°C 70% 7.7 mph NW12.4 kmh NW 10.7 mph17.2 kmh 29.40 in995.6 mb 0.00 in0.0 mm 0.00 in0.0 mm 0.06 in1.5 mm
05:20 PM 44.8°F7.1°C 35.6°F2.0°C 70% 7.4 mph NW11.9 kmh NW 9.2 mph14.8 kmh 29.39 in995.3 mb 0.00 in0.0 mm 0.00 in0.0 mm 0.06 in1.5 mm
05:30 PM 44.6°F7.0°C 35.4°F1.9°C 70% 7.5 mph NW12.1 kmh NW 9.8 mph15.8 kmh 29.40 in995.6 mb 0.00 in0.0 mm 0.00 in0.0 mm 0.06 in1.5 mm
05:40 PM 44.6°F7.0°C 35.4°F1.9°C 70% 7.6 mph NW12.2 kmh NW 9.8 mph15.8 kmh 29.40 in995.6 mb 0.00 in0.0 mm 0.00 in0.0 mm 0.06 in1.5 mm
05:50 PM 44.6°F7.0°C 35.4°F1.9°C 70% 6.9 mph WNW11.1 kmh WNW 9.8 mph15.8 kmh 29.41 in995.9 mb 0.00 in0.0 mm 0.00 in0.0 mm 0.06 in1.5 mm
06:00 PM 44.4°F6.9°C 35.3°F1.8°C 70% 7.8 mph NW12.6 kmh NW 11.4 mph18.3 kmh 29.42 in996.3 mb 0.00 in0.0 mm 0.00 in0.0 mm 0.06 in1.5 mm
06:10 PM 44.4°F6.9°C 35.3°F1.8°C 70% 8.1 mph NW13.0 kmh NW 10.7 mph17.2 kmh 29.42 in996.3 mb 0.00 in0.0 mm 0.00 in0.0 mm 0.06 in1.5 mm
06:20 PM 44.4°F6.9°C 35.6°F2.0°C 71% 5.8 mph WNW9.3 kmh WNW 9.2 mph14.8 kmh 29.42 in996.3 mb 0.00 in0.0 mm 0.00 in0.0 mm 0.06 in1.5 mm
06:30 PM 44.4°F6.9°C 35.6°F2.0°C 71% 5.4 mph NNW8.7 kmh NNW 8.3 mph13.4 kmh 29.43 in996.6 mb 0.00 in0.0 mm 0.00 in0.0 mm 0.06 in1.5 mm
06:40 PM 44.4°F6.9°C 35.6°F2.0°C 71% 6.1 mph NW9.8 kmh NW 9.8 mph15.8 kmh 29.44 in997.0 mb 0.00 in0.0 mm 0.00 in0.0 mm 0.06 in1.5 mm
06:50 PM 44.2°F6.8°C 35.4°F1.9°C 71% 6.0 mph NW9.7 kmh NW 8.3 mph13.4 kmh 29.45 in997.3 mb 0.00 in0.0 mm 0.00 in0.0 mm 0.06 in1.5 mm
07:00 PM 44.1°F6.7°C 35.3°F1.8°C 71% 4.8 mph NW7.7 kmh NW 8.3 mph13.4 kmh 29.45 in997.3 mb 0.00 in0.0 mm 0.00 in0.0 mm 0.06 in1.5 mm
07:10 PM 44.1°F6.7°C 35.3°F1.8°C 71% 5.7 mph NW9.2 kmh NW 9.8 mph15.8 kmh 29.46 in997.6 mb 0.00 in0.0 mm 0.00 in0.0 mm 0.06 in1.5 mm
07:20 PM 44.1°F6.7°C 35.3°F1.8°C 71% 6.3 mph NW10.1 kmh NW 10.7 mph17.2 kmh 29.47 in998.0 mb 0.00 in0.0 mm 0.00 in0.0 mm 0.06 in1.5 mm
07:30 PM 44.1°F6.7°C 35.3°F1.8°C 71% 6.2 mph NW10.0 kmh NW 10.7 mph17.2 kmh 29.47 in998.0 mb 0.00 in0.0 mm 0.00 in0.0 mm 0.06 in1.5 mm
07:40 PM 43.9°F6.6°C 35.1°F1.7°C 71% 6.3 mph NW10.1 kmh NW 9.8 mph15.8 kmh 29.48 in998.3 mb 0.00 in0.0 mm 0.00 in0.0 mm 0.06 in1.5 mm
07:50 PM 43.9°F6.6°C 35.1°F1.7°C 71% 8.2 mph NW13.2 kmh NW 13.0 mph20.9 kmh 29.48 in998.3 mb 0.00 in0.0 mm 0.00 in0.0 mm 0.06 in1.5 mm
08:00 PM 43.9°F6.6°C 35.1°F1.7°C 71% 6.7 mph NW10.8 kmh NW 9.2 mph14.8 kmh 29.49 in998.6 mb 0.00 in0.0 mm 0.00 in0.0 mm 0.06 in1.5 mm
08:10 PM 43.9°F6.6°C 35.1°F1.7°C 71% 5.5 mph NW8.9 kmh NW 7.6 mph12.2 kmh 29.49 in998.6 mb 0.00 in0.0 mm 0.00 in0.0 mm 0.06 in1.5 mm
08:20 PM 43.7°F6.5°C 34.9°F1.6°C 71% 5.5 mph N8.9 kmh N 9.2 mph14.8 kmh 29.50 in999.0 mb 0.00 in0.0 mm 0.00 in0.0 mm 0.06 in1.5 mm
08:30 PM 43.7°F6.5°C 34.9°F1.6°C 71% 5.6 mph NNW9.0 kmh NNW 8.3 mph13.4 kmh 29.49 in998.6 mb 0.00 in0.0 mm 0.00 in0.0 mm 0.06 in1.5 mm
08:40 PM 43.7°F6.5°C 34.6°F1.4°C 70% 6.8 mph NW10.9 kmh NW 8.3 mph13.4 kmh 29.50 in999.0 mb 0.00 in0.0 mm 0.00 in0.0 mm 0.06 in1.5 mm
08:50 PM 43.7°F6.5°C 34.9°F1.6°C 71% 4.4 mph NNW7.1 kmh NNW 6.9 mph11.1 kmh 29.50 in999.0 mb 0.00 in0.0 mm 0.00 in0.0 mm 0.06 in1.5 mm
09:00 PM 43.5°F6.4°C 34.8°F1.6°C 71% 3.9 mph WNW6.3 kmh WNW 6.0 mph9.7 kmh 29.51 in999.3 mb 0.00 in0.0 mm 0.00 in0.0 mm 0.06 in1.5 mm
09:10 PM 43.5°F6.4°C 34.8°F1.6°C 71% 4.4 mph W7.1 kmh W 6.9 mph11.1 kmh 29.50 in999.0 mb 0.00 in0.0 mm 0.00 in0.0 mm 0.06 in1.5 mm
09:20 PM 43.5°F6.4°C 34.8°F1.6°C 71% 5.5 mph NW8.9 kmh NW 8.3 mph13.4 kmh 29.52 in999.7 mb 0.00 in0.0 mm 0.00 in0.0 mm 0.06 in1.5 mm
09:30 PM 43.5°F6.4°C 34.8°F1.6°C 71% 7.0 mph NW11.3 kmh NW 10.7 mph17.2 kmh 29.52 in999.7 mb 0.00 in0.0 mm 0.00 in0.0 mm 0.06 in1.5 mm
09:40 PM 43.5°F6.4°C 34.8°F1.6°C 71% 6.0 mph WNW9.7 kmh WNW 9.2 mph14.8 kmh 29.52 in999.7 mb 0.00 in0.0 mm 0.00 in0.0 mm 0.06 in1.5 mm
09:50 PM 43.5°F6.4°C 34.8°F1.6°C 71% 5.8 mph NW9.3 kmh NW 7.6 mph12.2 kmh 29.52 in999.7 mb 0.00 in0.0 mm 0.00 in0.0 mm 0.06 in1.5 mm
10:00 PM 43.5°F6.4°C 35.1°F1.7°C 72% 6.0 mph WNW9.7 kmh WNW 9.2 mph14.8 kmh 29.52 in999.7 mb 0.00 in0.0 mm 0.00 in0.0 mm 0.06 in1.5 mm
10:10 PM 43.3°F6.3°C 34.9°F1.6°C 72% 5.2 mph NW8.4 kmh NW 9.8 mph15.8 kmh 29.53 in1000.0 mb 0.00 in0.0 mm 0.00 in0.0 mm 0.06 in1.5 mm
10:20 PM 43.3°F6.3°C 34.9°F1.6°C 72% 3.9 mph NW6.3 kmh NW 5.4 mph8.7 kmh 29.54 in1000.3 mb 0.00 in0.0 mm 0.00 in0.0 mm 0.06 in1.5 mm
10:30 PM 43.2°F6.2°C 35.1°F1.7°C 73% 4.4 mph NW7.1 kmh NW 6.9 mph11.1 kmh 29.53 in1000.0 mb 0.00 in0.0 mm 0.00 in0.0 mm 0.06 in1.5 mm
10:40 PM 43.2°F6.2°C 34.8°F1.6°C 72% 6.0 mph NW9.7 kmh NW 7.6 mph12.2 kmh 29.53 in1000.0 mb 0.00 in0.0 mm 0.00 in0.0 mm 0.06 in1.5 mm
10:50 PM 43.2°F6.2°C 34.8°F1.6°C 72% 4.8 mph NW7.7 kmh NW 6.9 mph11.1 kmh 29.54 in1000.3 mb 0.00 in0.0 mm 0.00 in0.0 mm 0.06 in1.5 mm
11:00 PM 43.2°F6.2°C 34.8°F1.6°C 72% 4.4 mph NW7.1 kmh NW 6.9 mph11.1 kmh 29.54 in1000.3 mb 0.00 in0.0 mm 0.00 in0.0 mm 0.06 in1.5 mm
11:10 PM 43.0°F6.1°C 34.9°F1.6°C 73% 3.4 mph NW5.5 kmh NW 4.5 mph7.2 kmh 29.54 in1000.3 mb 0.00 in0.0 mm 0.00 in0.0 mm 0.06 in1.5 mm
11:20 PM 43.0°F6.1°C 34.6°F1.4°C 72% 6.7 mph NW10.8 kmh NW 10.7 mph17.2 kmh 29.55 in1000.7 mb 0.00 in0.0 mm 0.00 in0.0 mm 0.06 in1.5 mm
11:30 PM 43.0°F6.1°C 34.6°F1.4°C 72% 6.5 mph NW10.5 kmh NW 9.2 mph14.8 kmh 29.56 in1001.0 mb 0.00 in0.0 mm 0.00 in0.0 mm 0.06 in1.5 mm
11:40 PM 43.0°F6.1°C 34.6°F1.4°C 72% 7.4 mph NW11.9 kmh NW 9.2 mph14.8 kmh 29.55 in1000.7 mb 0.00 in0.0 mm 0.00 in0.0 mm 0.06 in1.5 mm
11:50 PM 42.8°F6.0°C 34.4°F1.3°C 72% 4.8 mph NW7.7 kmh NW 8.3 mph13.4 kmh 29.56 in1001.0 mb 0.00 in0.0 mm 0.00 in0.0 mm 0.06 in1.5 mm